Rechercher aéroport 
image banner adimage banner adimage banner ad
image banner ad

80CL - Blythe Service Center

Situé à Blythe, United States

ICAO - 80CL, IATA -

Données fournies par Airmate  

Information générale

Coordonnées: N33°36'18" W114°36'8"
Élévation : 297 feet MSL.
Variation magnétique : 13° East
Voir autres Aéroports à California

Données opérationnelles

Special qualification required
Heure actuelle UTC:
Heure actuelle locale:
Météo à : KBLH - Blythe ( 11 km )
METAR: KBLH 262152Z AUTO 16010KT 10SM CLR 38/17 A2985 RMK AO2 SLP100 T03780167
TAF: KBLH 261730Z 2618/2718 14007KT P6SM SCT080 BKN120 FM262000 17010KT P6SM FEW080 SCT250 FM270300 18006KT P6SM FEW250 FM270900 VRB04KT P6SM FEW250
Voir NOTAMs / SUP AIP / TFR affectant cet aéroport [VIEW]
Fréquences de communication: [VIEW]

Pistes:

Coordonnées de l'aéroport

Adresse: Blythe United States

Vue satellite de 80CL